Time;durP1;ratioP1;P1;durP2;ratioP2;P2;SDS_P1;SDS_P2;PMS_P1;PMS_P2;Temp;Humidity;BMP_temperature;BMP_pressure;BME280_temperature;BME280_humidity;BME280_pressure;Samples;Min_cycle;Max_cycle;Signal;HPM_P1;HPM_P2
2022/03/29 00:00:52;;;;;;;25.52;4.50;;;;;;;4.05;70.57;100731.38;1713323;82;21047;-82
2022/03/29 00:03:19;;;;;;;18.65;4.97;;;;;;;4.11;70.53;100733.19;1711797;82;21037;-82
2022/03/29 00:05:45;;;;;;;17.70;4.97;;;;;;;4.14;69.27;100728.75;1712086;82;21514;-81
2022/03/29 00:08:11;;;;;;;26.10;5.25;;;;;;;4.16;68.75;100726.70;1715968;82;21124;-81
2022/03/29 00:10:37;;;;;;;20.40;4.97;;;;;;;4.17;69.87;100724.33;1715981;83;21037;-81
2022/03/29 00:13:04;;;;;;;20.88;4.65;;;;;;;4.19;70.15;100728.13;1715890;82;21040;-82
2022/03/29 00:15:30;;;;;;;19.75;5.10;;;;;;;4.19;69.53;100728.13;1717803;82;21048;-81
2022/03/29 00:17:56;;;;;;;20.72;4.87;;;;;;;4.16;71.31;100721.37;1716009;82;21709;-81
2022/03/29 00:20:23;;;;;;;22.20;5.58;;;;;;;4.18;70.28;100723.31;1716592;82;21117;-81
2022/03/29 00:22:49;;;;;;;25.08;5.65;;;;;;;4.22;70.87;100722.36;1715248;82;21100;-81
2022/03/29 00:25:16;;;;;;;27.30;5.92;;;;;;;4.23;70.24;100719.47;1715959;82;21511;-82
2022/03/29 00:27:43;;;;;;;31.00;5.67;;;;;;;4.25;70.87;100716.08;1716430;82;21050;-81
2022/03/29 00:30:11;;;;;;;18.70;5.25;;;;;;;4.25;70.55;100708.08;1714571;82;21088;-82
2022/03/29 00:32:40;;;;;;;24.43;5.60;;;;;;;4.26;70.63;100707.55;1716704;82;21224;-82
2022/03/29 00:35:09;;;;;;;16.12;4.92;;;;;;;4.30;70.05;100697.58;1714966;82;21077;-82
2022/03/29 00:37:39;;;;;;;29.07;5.92;;;;;;;4.33;70.26;100686.48;1716082;82;21062;-82
2022/03/29 00:40:09;;;;;;;20.25;5.15;;;;;;;4.33;69.44;100686.48;1717144;82;21078;-82
2022/03/29 00:42:35;;;;;;;20.50;5.20;;;;;;;4.33;71.62;100687.81;1714851;83;21050;-82
2022/03/29 00:45:02;;;;;;;20.08;5.37;;;;;;;4.32;70.34;100687.52;1716309;82;21069;-82
2022/03/29 00:47:28;;;;;;;22.85;4.78;;;;;;;4.32;70.08;100690.19;1716383;82;21002;-82
2022/03/29 00:49:55;;;;;;;26.50;4.80;;;;;;;4.31;69.71;100683.20;1716121;82;20983;-82
2022/03/29 00:52:21;;;;;;;17.37;5.28;;;;;;;4.35;69.33;100679.58;1715362;82;21207;-82
2022/03/29 00:54:48;;;;;;;35.88;4.75;;;;;;;4.35;70.39;100680.91;1715903;82;21588;-82
2022/03/29 00:57:15;;;;;;;20.27;4.35;;;;;;;4.34;72.08;100679.28;1715926;82;21089;-82
2022/03/29 00:59:44;;;;;;;19.50;4.12;;;;;;;4.29;71.73;100670.62;1717076;82;21026;-82
2022/03/29 01:02:11;;;;;;;21.12;4.83;;;;;;;4.23;71.58;100662.64;1718612;82;21021;-82
2022/03/29 01:04:37;;;;;;;17.75;4.45;;;;;;;4.16;72.26;100670.70;1716382;82;21725;-82
2022/03/29 01:07:05;;;;;;;21.52;4.42;;;;;;;4.06;73.16;100672.51;1715615;82;21137;-81
2022/03/29 01:09:33;;;;;;;22.82;4.40;;;;;;;3.98;73.79;100671.42;1713436;82;21242;-82
2022/03/29 01:12:00;;;;;;;17.32;4.10;;;;;;;3.95;76.35;100666.52;1714131;82;21003;-82
2022/03/29 01:14:27;;;;;;;18.62;5.00;;;;;;;3.92;75.63;100668.28;1715127;82;20998;-82
2022/03/29 01:19:43;;;;;;;18.05;4.20;;;;;;;3.80;80.21;100655.34;1705400;82;21039;-82
2022/03/29 01:22:11;;;;;;;17.85;4.50;;;;;;;3.75;79.42;100659.96;1715984;82;22023;-82
2022/03/29 01:24:43;;;;;;;16.02;4.37;;;;;;;3.68;80.15;100659.19;1654415;84;21002;-82
2022/03/29 01:27:12;;;;;;;12.35;3.77;;;;;;;3.59;79.57;100657.80;1712551;82;21002;-82
2022/03/29 01:29:40;;;;;;;22.77;4.10;;;;;;;3.51;81.26;100660.70;1705096;82;21680;-82
2022/03/29 01:32:09;;;;;;;22.90;3.67;;;;;;;3.47;82.65;100654.14;1713139;82;21000;-82
2022/03/29 01:34:39;;;;;;;17.45;3.90;;;;;;;3.44;87.40;100652.72;1720990;81;22086;-82
2022/03/29 01:37:06;;;;;;;18.80;4.00;;;;;;;3.45;86.98;100653.55;1722250;81;21531;-82
2022/03/29 01:39:37;;;;;;;14.73;3.33;;;;;;;3.45;87.90;100649.56;1722989;82;21006;-82
2022/03/29 01:42:05;;;;;;;15.25;3.67;;;;;;;3.47;86.99;100652.33;1716585;82;21686;-82
2022/03/29 01:44:32;;;;;;;18.73;4.25;;;;;;;3.46;87.80;100652.00;1720431;82;21549;-82
2022/03/29 01:46:58;;;;;;;17.32;3.58;;;;;;;3.44;87.66;100650.05;1720311;82;21249;-82
2022/03/29 01:49:25;;;;;;;21.93;3.25;;;;;;;3.40;88.70;100652.84;1723028;81;20998;-82
2022/03/29 01:51:52;;;;;;;15.30;3.58;;;;;;;3.37;89.52;100641.28;1720429;81;21058;-82
2022/03/29 01:54:18;;;;;;;13.58;3.60;;;;;;;3.35;90.84;100644.17;1720390;81;21026;-83
2022/03/29 01:56:44;;;;;;;29.45;4.12;;;;;;;3.32;91.26;100645.90;1721896;81;21653;-82
2022/03/29 01:59:14;;;;;;;18.32;3.58;;;;;;;3.31;92.35;100644.80;1723747;82;21936;-82
2022/03/29 02:01:48;;;;;;;20.02;4.00;;;;;;;3.32;97.31;100648.56;1720015;81;21002;-82
2022/03/29 02:04:16;;;;;;;23.22;4.33;;;;;;;3.34;97.75;100641.70;1721152;81;21202;-82
2022/03/29 02:06:42;;;;;;;17.57;3.25;;;;;;;3.33;98.35;100644.89;1719257;82;21566;-82
2022/03/29 02:09:10;;;;;;;19.90;3.60;;;;;;;3.31;98.09;100644.80;1717634;82;21054;-82
2022/03/29 02:11:42;;;;;;;10.68;3.30;;;;;;;3.30;99.83;100631.99;1721691;81;21451;-82
2022/03/29 02:14:08;;;;;;;19.12;3.33;;;;;;;3.29;100.00;100625.02;1697782;83;21058;-82
2022/03/29 02:16:34;;;;;;;22.55;3.45;;;;;;;3.26;100.00;100624.63;1722614;82;21057;-82
2022/03/29 02:19:00;;;;;;;18.15;3.37;;;;;;;3.25;100.00;100630.98;1695463;82;21003;-82
2022/03/29 02:21:27;;;;;;;15.58;3.72;;;;;;;3.26;100.00;100625.44;1724562;81;20981;-82
2022/03/29 02:23:53;;;;;;;16.95;3.02;;;;;;;3.27;100.00;100620.95;1704784;82;21911;-82
2022/03/29 02:26:19;;;;;;;17.37;3.40;;;;;;;3.26;100.00;100609.98;1682395;82;21696;-82
2022/03/29 02:28:46;;;;;;;19.23;3.80;;;;;;;3.23;100.00;100615.20;1701034;83;21132;-82
2022/03/29 02:31:12;;;;;;;14.15;3.65;;;;;;;3.24;100.00;100617.38;1691569;83;21132;-82
2022/03/29 02:33:38;;;;;;;21.00;3.50;;;;;;;3.21;100.00;100613.78;1701457;83;21144;-82
2022/03/29 02:36:05;;;;;;;18.90;3.77;;;;;;;3.14;100.00;100613.29;1701674;83;21034;-82
2022/03/29 02:38:31;;;;;;;18.07;3.50;;;;;;;3.08;100.00;100605.34;1694382;82;21017;-82
2022/03/29 02:40:58;;;;;;;29.00;4.10;;;;;;;3.01;100.00;100600.04;1697529;82;21062;-82
2022/03/29 02:43:26;;;;;;;16.75;3.92;;;;;;;2.94;100.00;100597.89;1700734;82;21863;-82
2022/03/29 02:45:52;;;;;;;25.52;4.17;;;;;;;2.88;100.00;100593.41;1689966;83;21093;-82
2022/03/29 02:48:18;;;;;;;18.55;4.40;;;;;;;2.80;100.00;100597.13;1704909;81;21769;-82
2022/03/29 02:50:45;;;;;;;20.37;4.28;;;;;;;2.76;100.00;100595.89;1719936;82;21582;-82
2022/03/29 02:53:11;;;;;;;20.32;4.92;;;;;;;2.77;100.00;100600.73;1719123;82;21427;-82
2022/03/29 02:55:38;;;;;;;16.32;3.50;;;;;;;2.76;100.00;100597.22;1716841;82;21015;-82
2022/03/29 02:58:05;;;;;;;23.70;3.90;;;;;;;2.70;100.00;100591.41;1715210;81;21263;-82
2022/03/29 03:00:31;;;;;;;18.23;3.65;;;;;;;2.66;100.00;100596.85;1722377;82;21434;-82
2022/03/29 03:02:57;;;;;;;32.05;4.85;;;;;;;2.61;100.00;100594.80;1723271;82;21093;-82
2022/03/29 03:05:24;;;;;;;23.60;4.67;;;;;;;2.58;100.00;100605.05;1723432;82;21017;-82
2022/03/29 03:07:50;;;;;;;16.42;4.28;;;;;;;2.55;100.00;100602.80;1720821;82;21023;-82
2022/03/29 03:10:17;;;;;;;19.90;4.25;;;;;;;2.50;100.00;100592.80;1725830;82;21050;-82
2022/03/29 03:12:47;;;;;;;18.75;3.72;;;;;;;2.53;100.00;100596.37;1721663;82;21288;-83
2022/03/29 03:15:16;;;;;;;15.53;3.35;;;;;;;2.54;100.00;100582.55;1717150;82;21081;-82
2022/03/29 03:17:43;;;;;;;25.12;4.37;;;;;;;2.53;100.00;100573.77;1724427;82;21559;-82
2022/03/29 03:20:11;;;;;;;23.05;4.55;;;;;;;2.57;100.00;100577.62;1722123;82;21443;-82
2022/03/29 03:22:41;;;;;;;36.77;4.47;;;;;;;2.61;100.00;100571.38;1718994;81;21040;-82
2022/03/29 03:25:08;;;;;;;23.22;4.35;;;;;;;2.65;100.00;100572.61;1719910;82;21489;-82
2022/03/29 03:27:35;;;;;;;24.52;4.72;;;;;;;2.69;100.00;100578.63;1719753;81;21010;-82
2022/03/29 03:30:04;;;;;;;21.70;4.22;;;;;;;2.77;100.00;100578.11;1721952;81;21013;-82
2022/03/29 03:32:30;;;;;;;18.95;4.28;;;;;;;2.81;100.00;100580.64;1713516;82;21070;-82
2022/03/29 03:34:57;;;;;;;20.77;3.98;;;;;;;2.84;100.00;100587.70;1724258;82;21090;-82
2022/03/29 03:37:24;;;;;;;18.67;3.92;;;;;;;2.88;100.00;100583.61;1724343;82;21008;-82
2022/03/29 03:39:50;;;;;;;22.55;4.33;;;;;;;2.94;100.00;100577.45;1725419;82;21010;-82
2022/03/29 03:42:16;;;;;;;22.02;5.15;;;;;;;2.99;100.00;100585.30;1722908;82;21451;-82
2022/03/29 03:44:43;;;;;;;21.65;3.60;;;;;;;3.04;100.00;100586.83;1716219;82;21042;-82
2022/03/29 03:47:10;;;;;;;22.75;3.77;;;;;;;3.08;100.00;100588.03;1719535;81;21006;-82
2022/03/29 03:49:38;;;;;;;18.23;3.70;;;;;;;3.15;100.00;100585.66;1720881;82;21171;-82
2022/03/29 03:52:07;;;;;;;29.20;3.77;;;;;;;3.24;100.00;100578.25;1722644;81;21602;-82
2022/03/29 03:54:37;;;;;;;20.72;3.35;;;;;;;3.33;100.00;100580.16;1719991;82;21018;-82
2022/03/29 03:57:04;;;;;;;22.50;3.45;;;;;;;3.44;100.00;100586.64;1719162;82;21097;-83
2022/03/29 03:59:31;;;;;;;20.92;3.80;;;;;;;3.54;100.00;100591.01;1722110;81;21077;-82
2022/03/29 04:01:58;;;;;;;23.62;3.77;;;;;;;3.64;100.00;100580.69;1718168;82;21162;-82
2022/03/29 04:04:24;;;;;;;15.85;3.52;;;;;;;3.75;100.00;100579.20;1721109;81;21222;-83
2022/03/29 04:06:51;;;;;;;20.27;3.85;;;;;;;3.86;100.00;100583.84;1726233;81;21108;-82
2022/03/29 04:09:18;;;;;;;16.60;3.20;;;;;;;3.96;100.00;100586.83;1723212;82;21105;-83
2022/03/29 04:11:45;;;;;;;17.32;3.92;;;;;;;4.08;100.00;100589.62;1712585;82;21026;-82
2022/03/29 04:14:11;;;;;;;16.65;3.60;;;;;;;4.16;100.00;100589.36;1725646;81;21116;-82
2022/03/29 04:16:37;;;;;;;24.05;4.78;;;;;;;4.26;100.00;100588.86;1723666;82;21092;-82
2022/03/29 04:19:03;;;;;;;24.82;4.58;;;;;;;4.34;100.00;100589.92;1718605;81;21058;-83
2022/03/29 04:21:30;;;;;;;32.93;4.25;;;;;;;4.41;100.00;100592.52;1689111;82;21085;-82
2022/03/29 04:23:56;;;;;;;25.70;3.90;;;;;;;5.15;100.00;100601.43;1726791;81;21304;-82
2022/03/29 04:26:22;;;;;;;16.40;3.37;;;;;;;5.93;100.00;100600.61;1694737;82;21101;-83
2022/03/29 04:28:48;;;;;;;21.33;3.65;;;;;;;6.22;100.00;100585.54;1721117;81;21015;-83
2022/03/29 04:31:14;;;;;;;30.45;3.80;;;;;;;7.15;100.00;100593.77;1720078;82;22172;-83
2022/03/29 04:33:41;;;;;;;13.35;3.08;;;;;;;8.01;93.76;100593.20;1717827;82;21196;-83
2022/03/29 04:36:07;;;;;;;27.35;3.52;;;;;;;8.95;87.89;100593.84;1699084;82;21108;-83
2022/03/29 04:38:34;;;;;;;12.75;3.98;;;;;;;9.67;78.16;100590.63;1721307;82;21236;-83
2022/03/29 04:41:00;;;;;;;32.85;4.03;;;;;;;10.42;71.80;100596.97;1719526;82;21047;-83
2022/03/29 04:43:26;;;;;;;32.35;4.22;;;;;;;11.16;66.13;100593.34;1719440;81;20998;-84
2022/03/29 04:45:53;;;;;;;21.10;4.28;;;;;;;11.81;62.00;100598.65;1722102;81;22137;-83
2022/03/29 04:48:19;;;;;;;14.23;3.55;;;;;;;12.42;58.32;100595.74;1720970;82;21050;-84
2022/03/29 04:50:45;;;;;;;26.68;3.20;;;;;;;12.96;54.75;100571.53;1721877;82;21098;-84
2022/03/29 04:53:13;;;;;;;24.85;3.55;;;;;;;13.28;52.65;100585.78;1717641;81;21195;-84
2022/03/29 04:55:39;;;;;;;23.67;3.45;;;;;;;13.64;50.75;100585.84;1720479;81;21149;-83
2022/03/29 04:58:05;;;;;;;20.35;3.60;;;;;;;14.28;49.61;100581.31;1726430;81;21062;-84
2022/03/29 05:00:32;;;;;;;22.27;3.27;;;;;;;14.72;46.24;100584.44;1718836;81;21058;-85
2022/03/29 05:02:58;;;;;;;21.90;3.33;;;;;;;14.54;45.68;100581.91;1717020;82;21161;-85
2022/03/29 05:05:25;;;;;;;28.07;4.30;;;;;;;14.87;46.78;100588.89;1722953;82;21045;-84
2022/03/29 05:07:51;;;;;;;15.70;3.47;;;;;;;15.18;43.90;100594.78;1724056;82;21039;-84
2022/03/29 05:10:18;;;;;;;19.05;3.42;;;;;;;15.26;42.69;100587.88;1719524;82;21176;-84
2022/03/29 05:12:46;;;;;;;20.43;3.98;;;;;;;16.11;44.01;100584.77;1719331;81;21073;-84
2022/03/29 05:15:16;;;;;;;22.40;4.05;;;;;;;16.62;41.83;100587.16;1718045;81;21145;-85
2022/03/29 05:17:43;;;;;;;17.42;3.87;;;;;;;16.97;40.84;100577.53;1722645;81;21550;-85
2022/03/29 05:20:11;;;;;;;14.40;3.55;;;;;;;17.14;39.64;100573.64;1720756;82;21554;-85
2022/03/29 05:22:49;;;;;;;13.68;3.15;;;;;;;17.39;39.21;100562.77;1719263;82;21066;-85
2022/03/29 05:25:19;;;;;;;21.57;3.75;;;;;;;17.84;39.08;100558.77;1720634;81;21010;-85
2022/03/29 05:27:46;;;;;;;20.43;3.52;;;;;;;18.09;36.89;100555.19;1718366;82;21980;-85
2022/03/29 05:30:14;;;;;;;19.82;3.72;;;;;;;18.11;37.20;100555.66;1683809;83;21621;-84
2022/03/29 05:32:41;;;;;;;22.02;3.92;;;;;;;18.21;36.98;100551.89;1721229;81;21109;-85
2022/03/29 05:35:10;;;;;;;23.55;3.27;;;;;;;18.67;36.71;100550.08;1721320;82;21006;-86
2022/03/29 05:37:38;;;;;;;23.22;3.98;;;;;;;18.57;35.27;100554.47;1721357;82;21046;-85
2022/03/29 05:40:07;;;;;;;23.00;4.40;;;;;;;18.82;34.59;100541.52;1722655;82;21029;-85
2022/03/29 05:42:42;;;;;;;20.62;4.37;;;;;;;19.22;35.04;100534.61;1717965;82;21548;-86
2022/03/29 05:45:10;;;;;;;18.35;4.08;;;;;;;19.85;32.82;100535.11;1714263;82;21151;-86
2022/03/29 05:50:23;;;;;;;17.05;3.65;;;;;;;20.23;34.20;100554.12;1655202;84;21542;-85
2022/03/29 05:52:50;;;;;;;17.52;4.10;;;;;;;20.96;32.80;100554.04;1659596;84;21971;-85
2022/03/29 05:55:16;;;;;;;20.17;4.17;;;;;;;21.01;32.10;100549.75;1646640;84;21058;-85
2022/03/29 05:57:43;;;;;;;30.52;3.92;;;;;;;21.07;32.48;100549.22;1661476;85;21090;-85
2022/03/29 06:00:12;;;;;;;25.75;4.00;;;;;;;21.88;31.60;100542.25;1653367;85;21584;-84
2022/03/29 06:02:39;;;;;;;24.60;4.37;;;;;;;22.02;31.08;100544.13;1581844;89;21692;-84
2022/03/29 06:05:07;;;;;;;23.10;3.90;;;;;;;22.26;31.11;100542.63;1578497;89;21093;-85
2022/03/29 06:07:33;;;;;;;24.92;4.55;;;;;;;22.40;29.79;100537.63;1581326;89;21101;-84
2022/03/29 06:10:00;;;;;;;13.50;3.77;;;;;;;22.56;29.16;100531.70;1581907;89;21081;-84
2022/03/29 06:12:26;;;;;;;27.25;3.80;;;;;;;22.90;29.22;100533.75;1583903;89;21082;-84
2022/03/29 06:14:52;;;;;;;22.22;4.17;;;;;;;23.16;28.99;100531.23;1580815;89;21350;-84
2022/03/29 06:17:19;;;;;;;24.63;4.20;;;;;;;23.18;28.96;100532.50;1578142;89;21685;-84
2022/03/29 06:19:47;;;;;;;16.60;3.62;;;;;;;23.33;28.78;100533.73;1580115;89;21708;-84
2022/03/29 06:22:13;;;;;;;25.25;4.08;;;;;;;23.69;27.59;100538.88;1567506;89;21137;-85
2022/03/29 06:24:40;;;;;;;21.77;4.25;;;;;;;23.42;27.99;100541.84;1569207;90;21464;-84
2022/03/29 06:27:06;;;;;;;16.67;4.00;;;;;;;23.54;28.13;100532.97;1577558;89;21193;-83
2022/03/29 06:29:36;;;;;;;20.23;4.10;;;;;;;23.96;27.83;100533.96;1578493;90;21234;-84
2022/03/29 06:32:04;;;;;;;23.40;4.58;;;;;;;24.39;26.70;100534.30;1578611;90;21149;-85
2022/03/29 06:34:30;;;;;;;23.62;4.30;;;;;;;24.26;27.09;100537.11;1596722;86;21148;-85
2022/03/29 06:36:57;;;;;;;17.55;4.17;;;;;;;24.89;27.13;100541.06;1608452;86;21165;-85
2022/03/29 06:39:24;;;;;;;20.95;3.92;;;;;;;25.43;26.58;100536.75;1607641;86;21201;-85
2022/03/29 06:41:50;;;;;;;26.30;5.37;;;;;;;25.72;26.00;100522.38;1613937;86;21165;-84
2022/03/29 06:44:17;;;;;;;23.50;4.30;;;;;;;25.55;25.83;100531.09;1613841;86;21539;-85
2022/03/29 06:46:43;;;;;;;24.70;4.42;;;;;;;25.88;26.02;100532.55;1631197;84;21076;-85
2022/03/29 06:49:10;;;;;;;26.30;5.37;;;;;;;25.90;25.51;100528.85;1655617;85;21069;-84
2022/03/29 06:51:37;;;;;;;19.23;4.05;;;;;;;25.90;25.17;100524.13;1663946;83;21062;-85
2022/03/29 06:54:05;;;;;;;25.12;4.22;;;;;;;25.70;25.35;100516.41;1667684;84;21259;-84
2022/03/29 06:56:32;;;;;;;23.75;4.30;;;;;;;26.00;25.70;100515.81;1662733;83;21104;-84
2022/03/29 06:59:00;;;;;;;25.45;4.15;;;;;;;26.33;25.37;100519.38;1655570;83;21159;-84
2022/03/29 07:01:27;;;;;;;18.52;4.20;;;;;;;26.83;24.49;100521.59;1666108;83;20990;-84
2022/03/29 07:03:59;;;;;;;24.32;4.90;;;;;;;26.31;24.23;100523.67;1664030;83;21088;-85
2022/03/29 07:06:23;;;;;;;20.70;4.65;;;;;;;26.31;24.87;100519.53;1657971;83;21076;-84
2022/03/29 07:11:36;;;;;;;21.12;5.00;;;;;;;26.84;23.49;100513.50;1664462;83;21428;-84
2022/03/29 07:14:07;;;;;;;17.90;4.47;;;;;;;27.41;23.59;100510.73;1628693;87;21276;-84
2022/03/29 07:16:34;;;;;;;18.07;4.57;;;;;;;27.77;23.59;100498.72;1618950;87;21231;-84
2022/03/29 07:19:02;;;;;;;22.75;4.72;;;;;;;27.76;23.44;100489.59;1610232;86;21761;-84
2022/03/29 07:21:29;;;;;;;21.50;4.53;;;;;;;28.07;23.17;100482.81;1645446;86;21099;-85
2022/03/29 07:23:55;;;;;;;24.55;4.62;;;;;;;28.29;23.31;100491.31;1649120;85;21015;-85
2022/03/29 07:26:22;;;;;;;16.00;4.30;;;;;;;28.26;22.68;100477.63;1647748;85;21031;-85
2022/03/29 07:28:49;;;;;;;26.45;4.58;;;;;;;28.12;22.28;100469.21;1647994;86;21586;-86
2022/03/29 07:31:16;;;;;;;25.12;5.00;;;;;;;27.93;22.57;100475.75;1635127;86;21154;-86
2022/03/29 07:33:43;;;;;;;17.73;4.25;;;;;;;27.75;22.79;100484.44;1638288;86;21027;-85
2022/03/29 07:36:10;;;;;;;25.45;4.83;;;;;;;28.27;22.87;100485.38;1632405;86;21218;-82
2022/03/29 07:38:36;;;;;;;23.67;4.58;;;;;;;29.13;22.57;100490.95;1630271;86;21078;-81
2022/03/29 07:41:03;;;;;;;29.27;4.80;;;;;;;29.29;22.24;100487.84;1638202;86;21115;-81
2022/03/29 07:43:31;;;;;;;23.83;5.80;;;;;;;29.16;21.34;100472.73;1637737;86;21228;-81
2022/03/29 07:45:59;;;;;;;29.42;4.85;;;;;;;28.40;21.53;100476.95;1638208;86;21102;-81
2022/03/29 07:48:26;;;;;;;18.87;4.70;;;;;;;28.08;22.40;100463.61;1637310;85;21047;-81
2022/03/29 07:50:53;;;;;;;21.48;4.95;;;;;;;28.88;22.28;100457.48;1640404;86;21263;-79
2022/03/29 07:53:21;;;;;;;20.85;4.30;;;;;;;29.14;20.93;100471.72;1627116;86;21077;-80
2022/03/29 07:55:48;;;;;;;24.85;4.78;;;;;;;28.36;21.36;100462.28;1639530;86;21197;-81
2022/03/29 07:58:16;;;;;;;17.85;4.62;;;;;;;27.96;22.12;100458.36;1648232;85;21118;-81
2022/03/29 08:00:43;;;;;;;25.40;4.35;;;;;;;28.53;21.75;100458.88;1629361;86;21117;-81
2022/03/29 08:03:13;;;;;;;22.85;4.78;;;;;;;28.66;21.41;100445.48;1649149;85;21127;-82
2022/03/29 08:05:44;;;;;;;17.90;4.17;;;;;;;28.81;22.07;100440.81;1648686;86;21103;-81
2022/03/29 08:10:42;;;;;;;21.68;4.42;;;;;;;30.09;21.03;100436.84;1557104;90;21126;-80
2022/03/29 08:13:10;;;;;;;20.20;4.55;;;;;;;29.85;20.71;100437.82;1568572;89;22114;-79
2022/03/29 08:15:40;;;;;;;22.10;4.50;;;;;;;29.30;20.61;100433.14;1561380;90;21207;-82
2022/03/29 08:18:10;;;;;;;24.25;4.65;;;;;;;29.39;20.98;100435.73;1616256;85;21630;-79
2022/03/29 08:20:39;;;;;;;20.05;4.62;;;;;;;29.79;20.80;100433.06;1581926;89;21253;-78
2022/03/29 08:23:09;;;;;;;15.63;4.65;;;;;;;29.77;20.31;100425.73;1577504;89;21101;-80
2022/03/29 08:25:39;;;;;;;14.53;4.95;;;;;;;29.51;20.50;100422.68;1543759;91;21600;-80
2022/03/29 08:28:07;;;;;;;22.62;4.50;;;;;;;29.44;20.54;100423.44;1538175;91;21223;-79
2022/03/29 08:30:34;;;;;;;16.82;4.47;;;;;;;29.40;20.90;100413.71;1537679;91;21174;-79
2022/03/29 08:33:02;;;;;;;21.30;4.78;;;;;;;29.84;20.37;100411.23;1535316;91;21212;-78
2022/03/29 08:35:30;;;;;;;23.30;5.55;;;;;;;29.74;20.43;100400.92;1538879;92;21214;-80
2022/03/29 08:37:57;;;;;;;29.45;5.25;;;;;;;29.68;20.54;100405.86;1535738;91;21560;-79
2022/03/29 08:40:27;;;;;;;27.15;5.50;;;;;;;30.05;20.36;100406.87;1537429;90;21135;-79
2022/03/29 08:42:58;;;;;;;20.27;5.50;;;;;;;30.55;20.02;100408.23;1538159;91;21269;-79
2022/03/29 08:45:31;;;;;;;23.40;5.37;;;;;;;30.31;19.83;100402.92;1537779;91;22060;-79
2022/03/29 08:48:03;;;;;;;31.65;4.80;;;;;;;30.35;19.93;100402.91;1529757;91;21121;-79
2022/03/29 08:50:36;;;;;;;17.23;5.00;;;;;;;30.75;20.29;100396.06;1533246;91;21103;-78
2022/03/29 08:53:01;;;;;;;24.63;5.28;;;;;;;30.85;19.59;100386.11;1535711;91;21652;-78
2022/03/29 08:55:28;;;;;;;25.90;5.53;;;;;;;30.24;19.19;100385.66;1541574;91;21178;-79
2022/03/29 08:57:55;;;;;;;20.88;5.10;;;;;;;30.02;19.94;100390.39;1576708;89;21258;-80
2022/03/29 09:00:26;;;;;;;27.60;4.85;;;;;;;30.43;19.75;100389.98;1577374;89;21722;-79
2022/03/29 09:02:53;;;;;;;25.88;5.12;;;;;;;30.18;19.53;100385.84;1577818;89;21261;-79
2022/03/29 09:05:27;;;;;;;25.60;5.15;;;;;;;29.79;19.90;100386.62;1575140;89;21253;-79
2022/03/29 09:07:57;;;;;;;28.65;5.30;;;;;;;29.65;19.92;100376.31;1578919;89;21724;-79
2022/03/29 09:10:48;;;;;;;29.35;5.42;;;;;;;29.25;20.11;100382.16;1572342;89;21235;-79
2022/03/29 09:13:28;;;;;;;18.90;5.22;;;;;;;29.15;20.31;100362.87;1572470;88;21230;-78
2022/03/29 09:15:59;;;;;;;18.75;5.00;;;;;;;28.71;20.44;100368.05;1606012;87;22229;-78
2022/03/29 09:18:27;;;;;;;23.90;5.12;;;;;;;28.92;20.56;100361.80;1652785;84;21143;-78
2022/03/29 09:21:13;;;;;;;25.70;5.03;;;;;;;29.08;20.61;100354.54;1665120;84;21025;-77
2022/03/29 09:23:44;;;;;;;23.47;5.42;;;;;;;29.52;20.31;100357.61;1625934;86;21168;-80
2022/03/29 09:26:27;;;;;;;;;;;;;;;29.34;20.09;100355.59;1643305;86;21122;-80
2022/03/29 09:28:54;;;;;;;17.73;4.83;;;;;;;29.20;20.42;100369.44;1650949;85;21268;-80
2022/03/29 09:31:24;;;;;;;19.65;4.80;;;;;;;28.99;20.38;100361.81;1643114;85;21181;-78
2022/03/29 09:33:59;;;;;;;21.35;4.75;;;;;;;28.80;20.46;100361.55;1644633;86;21058;-78
2022/03/29 09:36:31;;;;;;;19.45;4.87;;;;;;;28.83;20.60;100364.14;1612848;87;21939;-78
2022/03/29 09:38:59;;;;;;;18.23;4.80;;;;;;;28.82;20.39;100364.72;1612367;87;21499;-78
2022/03/29 09:41:32;;;;;;;17.30;4.78;;;;;;;28.44;20.66;100360.56;1608968;87;21168;-79
2022/03/29 09:44:09;;;;;;;24.55;5.15;;;;;;;28.28;20.73;100358.86;1611843;88;21175;-78
2022/03/29 09:46:58;;;;;;;17.67;5.08;;;;;;;27.60;21.29;100350.00;1562376;90;21713;-79
2022/03/29 09:49:26;;;;;;;21.73;4.83;;;;;;;27.30;21.83;100338.25;1553575;91;21558;-78
2022/03/29 09:52:14;;;;;;;20.05;4.90;;;;;;;27.42;21.76;100336.59;1564333;90;21163;-78
2022/03/29 09:54:42;;;;;;;19.05;5.05;;;;;;;27.16;21.89;100329.20;1480384;95;21750;-77
2022/03/29 09:57:12;;;;;;;28.47;5.30;;;;;;;27.02;22.11;100324.87;1483480;95;21170;-78
2022/03/29 09:59:51;;;;;;;24.67;5.72;;;;;;;26.63;22.24;100321.05;1484733;95;21533;-78
2022/03/29 10:02:18;;;;;;;26.40;5.40;;;;;;;26.04;22.68;100314.48;1481411;95;21258;-78
2022/03/29 10:04:47;;;;;;;24.15;4.53;;;;;;;25.46;23.33;100311.94;1482695;95;21150;-78
2022/03/29 10:07:14;;;;;;;25.70;4.92;;;;;;;25.37;23.39;100309.42;1476134;95;21195;-78
2022/03/29 10:09:43;;;;;;;19.37;5.15;;;;;;;25.18;23.47;100301.20;1474204;95;21552;-78
2022/03/29 10:12:10;;;;;;;22.48;5.05;;;;;;;24.74;24.14;100315.84;1483147;95;21095;-77
2022/03/29 10:14:41;;;;;;;28.42;5.15;;;;;;;24.31;24.12;100306.66;1492959;94;21245;-80
2022/03/29 10:17:09;;;;;;;26.07;5.15;;;;;;;24.01;24.70;100305.21;1503320;94;21600;-81
2022/03/29 10:19:41;;;;;;;20.97;5.35;;;;;;;24.20;24.99;100305.83;1512948;93;21621;-80
2022/03/29 10:22:08;;;;;;;20.15;4.55;;;;;;;23.80;24.93;100297.25;1518002;92;21077;-78
2022/03/29 10:24:35;;;;;;;25.82;4.78;;;;;;;23.21;25.38;100301.42;1518330;93;21065;-77
2022/03/29 10:27:03;;;;;;;23.30;4.90;;;;;;;22.95;25.69;100298.56;1520272;93;21215;-78
2022/03/29 10:29:31;;;;;;;21.00;5.10;;;;;;;22.68;25.99;100294.06;1519775;93;21088;-78
2022/03/29 10:32:07;;;;;;;16.60;4.97;;;;;;;22.71;26.25;100297.24;1521415;93;21329;-77
2022/03/29 10:34:47;;;;;;;19.50;4.47;;;;;;;22.82;26.31;100285.98;1520110;93;21160;-80
2022/03/29 10:37:21;;;;;;;27.75;5.10;;;;;;;22.89;26.29;100290.33;1519434;93;21183;-79
2022/03/29 10:40:00;;;;;;;25.92;5.35;;;;;;;22.95;26.16;100285.41;1517719;93;22108;-78
2022/03/29 10:42:41;;;;;;;27.60;5.03;;;;;;;22.71;26.19;100276.64;1511415;91;21149;-77
2022/03/29 10:45:21;;;;;;;18.17;4.80;;;;;;;22.26;26.36;100281.23;1559039;90;21082;-78
2022/03/29 10:48:02;;;;;;;20.48;5.15;;;;;;;21.94;26.79;100279.67;1621254;87;21137;-78
2022/03/29 10:50:56;;;;;;;24.05;4.95;;;;;;;21.80;27.11;100264.13;1633382;84;21119;-77
2022/03/29 10:53:36;;;;;;;16.95;4.85;;;;;;;21.69;27.38;100262.98;1725479;81;21152;-78
2022/03/29 10:56:17;;;;;;;17.07;5.28;;;;;;;21.44;27.69;100270.38;1722223;82;21006;-78
2022/03/29 10:59:08;;;;;;;24.35;5.05;;;;;;;21.22;28.15;100260.05;1714766;82;21024;-78
2022/03/29 11:01:37;;;;;;;29.20;5.15;;;;;;;21.09;28.25;100251.58;1718330;82;21010;-78
2022/03/29 11:04:08;;;;;;;27.42;5.30;;;;;;;21.17;28.28;100252.03;1690602;82;21541;-78
2022/03/29 11:06:36;;;;;;;22.02;4.95;;;;;;;21.23;28.31;100256.16;1716879;82;21212;-79
2022/03/29 11:09:12;;;;;;;18.12;4.40;;;;;;;21.25;28.30;100247.03;1690660;82;47573;-79
2022/03/29 11:11:43;;;;;;;19.10;4.65;;;;;;;21.15;28.42;100242.00;1674302;83;21577;-79
2022/03/29 11:14:35;;;;;;;22.13;4.72;;;;;;;21.05;28.54;100249.27;1632658;86;21137;-78
2022/03/29 11:17:13;;;;;;;19.62;4.67;;;;;;;21.15;28.50;100248.02;1626549;86;21027;-77
2022/03/29 11:19:48;;;;;;;19.67;4.45;;;;;;;21.32;28.50;100233.58;1631034;86;21042;-78
2022/03/29 11:22:36;;;;;;;21.45;5.17;;;;;;;21.68;28.26;100234.77;1605078;88;21083;-77
2022/03/29 11:25:06;;;;;;;22.45;4.78;;;;;;;22.00;28.07;100233.02;1629185;86;21492;-79
2022/03/29 11:27:36;;;;;;;27.70;5.72;;;;;;;22.10;27.57;100222.12;1627463;87;21176;-78
2022/03/29 11:30:07;;;;;;;26.20;5.35;;;;;;;22.14;27.42;100220.27;1623803;87;21296;-79
2022/03/29 11:32:36;;;;;;;21.70;5.03;;;;;;;22.06;27.34;100213.55;1584045;88;21809;-79
2022/03/29 11:35:07;;;;;;;26.17;4.92;;;;;;;22.02;27.29;100208.53;1552207;90;21151;-78
2022/03/29 11:37:45;;;;;;;23.20;5.05;;;;;;;21.70;27.46;100202.28;1589488;89;21160;-79